Chandler, Texas
Current Conditions -  °F | °C
As of 7:53 PM on Sunday 25 Jan 2015 (Local Time) from KTYR Reporting Station
Clear Clear  
Wind Chill: 50°   Ceiling: Unl
Heat Index: 50°   Visibility: 10mi
Dew Point: 28°   Wind: 7mph
Humidity: 43%   Direction: 310°NW
Pressure: 30.08"   Gusts: NA
Location:  32.31°N, 95.48°W
Report Text: KTYR 260153Z 31006KT 10SM CLR 10/M02 A3008 RMK AO2 SLP186 T01001022
Loading
Personal Weather Stations






























Interactive Weather Map New forecast layout! Learn more

10-Day Weather Forecast

Advertisements
Track Severe Weather on mobile